sensor_id;sensor_type;location;lat;lon;timestamp;pressure;altitude;pressure_sealevel;temperature;humidity
68380;BME280;57711;53.196;19.638;2023-02-15T00:01:56;101936.58;;;3.82;70.30
68380;BME280;57711;53.196;19.638;2023-02-15T00:04:25;101937.83;;;3.83;70.29
68380;BME280;57711;53.196;19.638;2023-02-15T00:07:16;101934.88;;;3.80;70.21
68380;BME280;57711;53.196;19.638;2023-02-15T00:09:46;101934.44;;;3.82;70.45
68380;BME280;57711;53.196;19.638;2023-02-15T00:12:14;101932.87;;;3.86;70.35
68380;BME280;57711;53.196;19.638;2023-02-15T00:14:42;101929.65;;;3.91;70.51
68380;BME280;57711;53.196;19.638;2023-02-15T00:17:09;101929.38;;;3.94;70.46
68380;BME280;57711;53.196;19.638;2023-02-15T00:19:36;101926.61;;;3.97;70.66
68380;BME280;57711;53.196;19.638;2023-02-15T00:22:04;101921.88;;;3.99;70.63
68380;BME280;57711;53.196;19.638;2023-02-15T00:24:31;101921.63;;;4.01;70.56
68380;BME280;57711;53.196;19.638;2023-02-15T00:26:58;101920.70;;;4.02;70.59
68380;BME280;57711;53.196;19.638;2023-02-15T00:29:26;101921.42;;;4.01;70.55
68380;BME280;57711;53.196;19.638;2023-02-15T00:31:53;101918.81;;;3.99;70.42
68380;BME280;57711;53.196;19.638;2023-02-15T00:34:25;101917.41;;;3.98;70.47
68380;BME280;57711;53.196;19.638;2023-02-15T00:36:52;101909.73;;;3.98;70.45
68380;BME280;57711;53.196;19.638;2023-02-15T00:39:20;101909.67;;;4.00;70.58
68380;BME280;57711;53.196;19.638;2023-02-15T00:41:47;101907.84;;;4.01;70.51
68380;BME280;57711;53.196;19.638;2023-02-15T00:44:14;101905.09;;;4.03;70.51
68380;BME280;57711;53.196;19.638;2023-02-15T00:46:41;101900.59;;;4.03;70.44
68380;BME280;57711;53.196;19.638;2023-02-15T00:49:09;101900.83;;;4.07;70.42
68380;BME280;57711;53.196;19.638;2023-02-15T00:51:37;101897.33;;;4.10;70.62
68380;BME280;57711;53.196;19.638;2023-02-15T00:54:05;101896.42;;;4.10;70.67
68380;BME280;57711;53.196;19.638;2023-02-15T00:56:32;101897.73;;;4.08;70.63
68380;BME280;57711;53.196;19.638;2023-02-15T00:58:59;101897.23;;;4.07;70.63
68380;BME280;57711;53.196;19.638;2023-02-15T01:01:26;101894.23;;;4.06;70.55
68380;BME280;57711;53.196;19.638;2023-02-15T01:03:54;101891.65;;;4.03;70.59
68380;BME280;57711;53.196;19.638;2023-02-15T01:06:21;101885.98;;;4.02;70.62
68380;BME280;57711;53.196;19.638;2023-02-15T01:08:48;101882.58;;;4.02;70.76
68380;BME280;57711;53.196;19.638;2023-02-15T01:11:17;101883.23;;;4.04;70.64
68380;BME280;57711;53.196;19.638;2023-02-15T01:13:57;101883.33;;;4.06;70.57
68380;BME280;57711;53.196;19.638;2023-02-15T01:16:26;101884.66;;;4.09;70.55
68380;BME280;57711;53.196;19.638;2023-02-15T01:18:54;101881.45;;;4.13;70.66
68380;BME280;57711;53.196;19.638;2023-02-15T01:21:23;101881.70;;;4.16;70.63
68380;BME280;57711;53.196;19.638;2023-02-15T01:23:50;101881.23;;;4.19;70.66
68380;BME280;57711;53.196;19.638;2023-02-15T01:26:18;101878.65;;;4.22;70.69
68380;BME280;57711;53.196;19.638;2023-02-15T01:28:45;101876.48;;;4.22;70.63
68380;BME280;57711;53.196;19.638;2023-02-15T01:31:15;101874.18;;;4.21;70.68
68380;BME280;57711;53.196;19.638;2023-02-15T01:33:45;101869.38;;;4.21;70.69
68380;BME280;57711;53.196;19.638;2023-02-15T01:36:13;101870.17;;;4.18;70.66
68380;BME280;57711;53.196;19.638;2023-02-15T01:38:43;101865.94;;;4.16;70.63
68380;BME280;57711;53.196;19.638;2023-02-15T01:41:10;101868.10;;;4.16;70.83
68380;BME280;57711;53.196;19.638;2023-02-15T01:43:58;101868.41;;;4.17;70.73
68380;BME280;57711;53.196;19.638;2023-02-15T01:49:03;101868.02;;;4.23;70.72
68380;BME280;57711;53.196;19.638;2023-02-15T01:51:34;101864.68;;;4.26;70.63
68380;BME280;57711;53.196;19.638;2023-02-15T01:54:27;101865.30;;;4.29;70.78
68380;BME280;57711;53.196;19.638;2023-02-15T01:57:03;101866.17;;;4.29;70.74
68380;BME280;57711;53.196;19.638;2023-02-15T01:59:33;101862.20;;;4.30;70.81
68380;BME280;57711;53.196;19.638;2023-02-15T02:02:02;101864.00;;;4.30;70.82
68380;BME280;57711;53.196;19.638;2023-02-15T02:04:35;101861.84;;;4.26;70.77
68380;BME280;57711;53.196;19.638;2023-02-15T02:07:05;101861.77;;;4.23;70.85
68380;BME280;57711;53.196;19.638;2023-02-15T02:09:34;101864.70;;;4.21;70.80
68380;BME280;57711;53.196;19.638;2023-02-15T02:12:02;101863.42;;;4.22;70.78
68380;BME280;57711;53.196;19.638;2023-02-15T02:14:31;101862.41;;;4.20;70.86
68380;BME280;57711;53.196;19.638;2023-02-15T02:25:29;101849.51;;;4.30;70.66
68380;BME280;57711;53.196;19.638;2023-02-15T02:33:58;101846.25;;;4.35;70.73
68380;BME280;57711;53.196;19.638;2023-02-15T02:39:43;101840.60;;;4.33;70.81
68380;BME280;57711;53.196;19.638;2023-02-15T02:42:35;101840.80;;;4.33;70.76
68380;BME280;57711;53.196;19.638;2023-02-15T02:45:09;101838.09;;;4.34;70.87
68380;BME280;57711;53.196;19.638;2023-02-15T02:47:51;101833.59;;;4.34;70.82
68380;BME280;57711;53.196;19.638;2023-02-15T02:50:25;101835.58;;;4.33;70.94
68380;BME280;57711;53.196;19.638;2023-02-15T02:52:54;101833.42;;;4.34;70.94
68380;BME280;57711;53.196;19.638;2023-02-15T02:55:56;101835.71;;;4.34;70.83
68380;BME280;57711;53.196;19.638;2023-02-15T02:58:31;101841.39;;;4.36;70.80
68380;BME280;57711;53.196;19.638;2023-02-15T03:01:03;101838.11;;;4.38;70.83
68380;BME280;57711;53.196;19.638;2023-02-15T03:03:42;101834.78;;;4.40;70.84
68380;BME280;57711;53.196;19.638;2023-02-15T03:06:23;101832.54;;;4.43;70.78
68380;BME280;57711;53.196;19.638;2023-02-15T03:09:03;101836.23;;;4.45;70.90
68380;BME280;57711;53.196;19.638;2023-02-15T03:11:34;101830.83;;;4.46;70.79
68380;BME280;57711;53.196;19.638;2023-02-15T03:14:02;101827.96;;;4.46;70.78
68380;BME280;57711;53.196;19.638;2023-02-15T03:16:30;101825.48;;;4.45;70.80
68380;BME280;57711;53.196;19.638;2023-02-15T03:19:14;101826.04;;;4.44;70.86
68380;BME280;57711;53.196;19.638;2023-02-15T03:21:50;101824.52;;;4.42;70.91
68380;BME280;57711;53.196;19.638;2023-02-15T03:24:28;101825.27;;;4.41;71.00
68380;BME280;57711;53.196;19.638;2023-02-15T03:26:59;101817.98;;;4.40;70.93
68380;BME280;57711;53.196;19.638;2023-02-15T03:29:30;101818.34;;;4.40;70.89
68380;BME280;57711;53.196;19.638;2023-02-15T03:32:00;101818.69;;;4.40;70.75
68380;BME280;57711;53.196;19.638;2023-02-15T03:34:29;101817.56;;;4.41;70.85
68380;BME280;57711;53.196;19.638;2023-02-15T03:37:05;101815.06;;;4.41;70.72
68380;BME280;57711;53.196;19.638;2023-02-15T03:46:08;101815.02;;;4.51;70.98
68380;BME280;57711;53.196;19.638;2023-02-15T03:49:01;101815.11;;;4.53;70.92
68380;BME280;57711;53.196;19.638;2023-02-15T03:51:34;101813.88;;;4.53;70.96
68380;BME280;57711;53.196;19.638;2023-02-15T03:54:16;101814.40;;;4.49;71.03
68380;BME280;57711;53.196;19.638;2023-02-15T03:57:09;101818.31;;;4.45;70.90
68380;BME280;57711;53.196;19.638;2023-02-15T03:59:56;101819.52;;;4.37;71.01
68380;BME280;57711;53.196;19.638;2023-02-15T04:02:52;101820.06;;;4.37;71.06
68380;BME280;57711;53.196;19.638;2023-02-15T04:05:24;101818.48;;;4.36;70.98
68380;BME280;57711;53.196;19.638;2023-02-15T04:07:51;101818.45;;;4.37;71.01
68380;BME280;57711;53.196;19.638;2023-02-15T04:10:18;101815.99;;;4.40;71.02
68380;BME280;57711;53.196;19.638;2023-02-15T04:13:04;101817.84;;;4.43;71.06
68380;BME280;57711;53.196;19.638;2023-02-15T04:15:31;101815.63;;;4.45;71.03
68380;BME280;57711;53.196;19.638;2023-02-15T04:18:17;101816.83;;;4.46;71.02
68380;BME280;57711;53.196;19.638;2023-02-15T04:20:45;101814.47;;;4.47;71.05
68380;BME280;57711;53.196;19.638;2023-02-15T04:23:31;101812.50;;;4.42;70.95
68380;BME280;57711;53.196;19.638;2023-02-15T04:26:18;101810.42;;;4.40;71.15
68380;BME280;57711;53.196;19.638;2023-02-15T04:28:45;101806.16;;;4.40;71.24
68380;BME280;57711;53.196;19.638;2023-02-15T04:31:12;101811.23;;;4.38;71.14
68380;BME280;57711;53.196;19.638;2023-02-15T04:33:39;101805.06;;;4.35;71.04
68380;BME280;57711;53.196;19.638;2023-02-15T04:36:06;101807.09;;;4.34;71.14
68380;BME280;57711;53.196;19.638;2023-02-15T04:38:33;101803.59;;;4.37;71.09
68380;BME280;57711;53.196;19.638;2023-02-15T04:41:00;101800.23;;;4.40;71.16
68380;BME280;57711;53.196;19.638;2023-02-15T04:43:27;101799.19;;;4.44;71.05
68380;BME280;57711;53.196;19.638;2023-02-15T04:45:54;101799.23;;;4.47;71.03
68380;BME280;57711;53.196;19.638;2023-02-15T04:48:22;101796.23;;;4.50;71.09
68380;BME280;57711;53.196;19.638;2023-02-15T04:50:49;101798.63;;;4.53;71.15
68380;BME280;57711;53.196;19.638;2023-02-15T04:53:16;101799.98;;;4.56;71.15
68380;BME280;57711;53.196;19.638;2023-02-15T04:55:45;101799.59;;;4.57;71.24
68380;BME280;57711;53.196;19.638;2023-02-15T04:58:12;101799.17;;;4.58;71.25
68380;BME280;57711;53.196;19.638;2023-02-15T05:00:39;101799.73;;;4.58;71.31
68380;BME280;57711;53.196;19.638;2023-02-15T05:03:06;101799.03;;;4.57;71.21
68380;BME280;57711;53.196;19.638;2023-02-15T05:05:33;101799.29;;;4.55;71.18
68380;BME280;57711;53.196;19.638;2023-02-15T05:08:00;101799.30;;;4.55;71.06
68380;BME280;57711;53.196;19.638;2023-02-15T05:10:28;101801.70;;;4.58;71.09
68380;BME280;57711;53.196;19.638;2023-02-15T05:12:55;101799.14;;;4.59;71.05
68380;BME280;57711;53.196;19.638;2023-02-15T05:15:22;101798.55;;;4.60;71.10
68380;BME280;57711;53.196;19.638;2023-02-15T05:17:49;101796.64;;;4.63;71.10
68380;BME280;57711;53.196;19.638;2023-02-15T05:20:17;101796.95;;;4.64;71.10
68380;BME280;57711;53.196;19.638;2023-02-15T05:22:45;101795.39;;;4.64;71.09
68380;BME280;57711;53.196;19.638;2023-02-15T05:25:12;101796.10;;;4.64;71.13
68380;BME280;57711;53.196;19.638;2023-02-15T05:27:58;101798.02;;;4.65;71.08
68380;BME280;57711;53.196;19.638;2023-02-15T05:30:44;101798.34;;;4.65;70.97
68380;BME280;57711;53.196;19.638;2023-02-15T05:33:12;101799.23;;;4.66;71.30
68380;BME280;57711;53.196;19.638;2023-02-15T05:35:39;101794.64;;;4.64;71.27
68380;BME280;57711;53.196;19.638;2023-02-15T05:38:06;101795.43;;;4.62;71.27
68380;BME280;57711;53.196;19.638;2023-02-15T05:40:33;101793.39;;;4.59;71.18
68380;BME280;57711;53.196;19.638;2023-02-15T05:43:01;101789.45;;;4.59;71.19
68380;BME280;57711;53.196;19.638;2023-02-15T05:45:28;101791.73;;;4.60;71.30
68380;BME280;57711;53.196;19.638;2023-02-15T05:47:55;101792.02;;;4.62;71.25
68380;BME280;57711;53.196;19.638;2023-02-15T05:50:22;101787.11;;;4.64;71.19
68380;BME280;57711;53.196;19.638;2023-02-15T05:52:50;101783.59;;;4.67;71.09
68380;BME280;57711;53.196;19.638;2023-02-15T05:55:18;101782.81;;;4.69;71.12
68380;BME280;57711;53.196;19.638;2023-02-15T05:57:45;101780.95;;;4.70;71.22
68380;BME280;57711;53.196;19.638;2023-02-15T06:00:13;101785.21;;;4.71;71.15
68380;BME280;57711;53.196;19.638;2023-02-15T06:02:40;101784.49;;;4.71;71.21
68380;BME280;57711;53.196;19.638;2023-02-15T06:05:08;101787.87;;;4.68;71.06
68380;BME280;57711;53.196;19.638;2023-02-15T06:07:35;101784.17;;;4.66;71.24
68380;BME280;57711;53.196;19.638;2023-02-15T06:10:03;101786.56;;;4.64;71.13
68380;BME280;57711;53.196;19.638;2023-02-15T06:12:30;101784.46;;;4.63;71.31
68380;BME280;57711;53.196;19.638;2023-02-15T06:14:57;101786.00;;;4.61;71.32
68380;BME280;57711;53.196;19.638;2023-02-15T06:17:24;101786.94;;;4.59;71.24
68380;BME280;57711;53.196;19.638;2023-02-15T06:19:51;101790.98;;;4.61;71.27
68380;BME280;57711;53.196;19.638;2023-02-15T06:22:19;101787.52;;;4.63;71.25
68380;BME280;57711;53.196;19.638;2023-02-15T06:24:47;101786.45;;;4.63;71.19
68380;BME280;57711;53.196;19.638;2023-02-15T06:27:14;101787.95;;;4.61;71.08
68380;BME280;57711;53.196;19.638;2023-02-15T06:29:41;101792.80;;;4.60;71.12
68380;BME280;57711;53.196;19.638;2023-02-15T06:32:08;101790.48;;;4.61;71.24
68380;BME280;57711;53.196;19.638;2023-02-15T06:34:35;101787.51;;;4.63;71.26
68380;BME280;57711;53.196;19.638;2023-02-15T06:37:03;101785.34;;;4.64;71.17
68380;BME280;57711;53.196;19.638;2023-02-15T06:39:30;101786.56;;;4.64;71.30
68380;BME280;57711;53.196;19.638;2023-02-15T06:41:57;101785.44;;;4.66;71.38
68380;BME280;57711;53.196;19.638;2023-02-15T06:44:24;101790.83;;;4.65;71.33
68380;BME280;57711;53.196;19.638;2023-02-15T06:46:52;101794.27;;;4.64;71.28
68380;BME280;57711;53.196;19.638;2023-02-15T06:49:19;101794.57;;;4.61;71.39
68380;BME280;57711;53.196;19.638;2023-02-15T06:51:46;101795.38;;;4.59;71.34
68380;BME280;57711;53.196;19.638;2023-02-15T06:54:13;101791.80;;;4.59;71.42
68380;BME280;57711;53.196;19.638;2023-02-15T06:56:40;101791.51;;;4.62;71.28
68380;BME280;57711;53.196;19.638;2023-02-15T06:59:07;101789.86;;;4.62;71.33
68380;BME280;57711;53.196;19.638;2023-02-15T07:01:34;101787.85;;;4.63;71.33
68380;BME280;57711;53.196;19.638;2023-02-15T07:04:04;101789.69;;;4.67;71.29
68380;BME280;57711;53.196;19.638;2023-02-15T07:06:32;101787.36;;;4.67;71.12
68380;BME280;57711;53.196;19.638;2023-02-15T07:09:00;101784.34;;;4.62;71.12
68380;BME280;57711;53.196;19.638;2023-02-15T07:11:27;101777.77;;;4.56;71.15
68380;BME280;57711;53.196;19.638;2023-02-15T07:14:13;101778.80;;;4.52;71.27
68380;BME280;57711;53.196;19.638;2023-02-15T07:16:40;101777.49;;;4.49;71.22
68380;BME280;57711;53.196;19.638;2023-02-15T07:19:07;101777.05;;;4.47;71.31
68380;BME280;57711;53.196;19.638;2023-02-15T07:21:35;101780.41;;;4.43;71.35
68380;BME280;57711;53.196;19.638;2023-02-15T07:24:03;101777.05;;;4.42;71.37
68380;BME280;57711;53.196;19.638;2023-02-15T07:26:33;101778.94;;;4.40;71.12
68380;BME280;57711;53.196;19.638;2023-02-15T07:29:00;101776.88;;;4.38;71.27
68380;BME280;57711;53.196;19.638;2023-02-15T07:31:27;101778.36;;;4.40;71.30
68380;BME280;57711;53.196;19.638;2023-02-15T07:33:55;101778.90;;;4.45;71.42
68380;BME280;57711;53.196;19.638;2023-02-15T07:36:22;101778.52;;;4.50;71.50
68380;BME280;57711;53.196;19.638;2023-02-15T07:38:49;101779.21;;;4.56;71.45
68380;BME280;57711;53.196;19.638;2023-02-15T07:41:16;101777.59;;;4.56;71.25
68380;BME280;57711;53.196;19.638;2023-02-15T07:43:44;101778.71;;;4.54;71.37
68380;BME280;57711;53.196;19.638;2023-02-15T07:46:14;101774.13;;;4.52;71.44
68380;BME280;57711;53.196;19.638;2023-02-15T07:48:43;101772.33;;;4.52;71.50
68380;BME280;57711;53.196;19.638;2023-02-15T07:51:11;101771.37;;;4.49;71.31
68380;BME280;57711;53.196;19.638;2023-02-15T07:53:39;101768.19;;;4.49;71.47
68380;BME280;57711;53.196;19.638;2023-02-15T07:56:10;101760.05;;;4.51;71.36
68380;BME280;57711;53.196;19.638;2023-02-15T07:58:38;101754.61;;;4.52;71.39
68380;BME280;57711;53.196;19.638;2023-02-15T08:01:19;101752.75;;;4.54;71.20
68380;BME280;57711;53.196;19.638;2023-02-15T08:03:47;101748.08;;;4.50;71.18
68380;BME280;57711;53.196;19.638;2023-02-15T08:06:14;101746.07;;;4.46;71.21
68380;BME280;57711;53.196;19.638;2023-02-15T08:08:42;101742.77;;;4.39;71.20
68380;BME280;57711;53.196;19.638;2023-02-15T08:14:04;101735.69;;;4.32;71.28
68380;BME280;57711;53.196;19.638;2023-02-15T08:19:20;101734.77;;;4.25;71.20
68380;BME280;57711;53.196;19.638;2023-02-15T08:21:53;101735.42;;;4.21;71.18
68380;BME280;57711;53.196;19.638;2023-02-15T08:24:22;101729.95;;;4.14;71.21
68380;BME280;57711;53.196;19.638;2023-02-15T08:26:51;101729.52;;;4.12;71.36
68380;BME280;57711;53.196;19.638;2023-02-15T08:29:21;101724.43;;;4.09;71.32
68380;BME280;57711;53.196;19.638;2023-02-15T08:31:57;101720.55;;;4.08;71.26
68380;BME280;57711;53.196;19.638;2023-02-15T08:34:33;101721.00;;;4.06;71.32
68380;BME280;57711;53.196;19.638;2023-02-15T08:37:01;101716.59;;;4.04;71.25
68380;BME280;57711;53.196;19.638;2023-02-15T08:39:28;101713.54;;;4.09;71.36
68380;BME280;57711;53.196;19.638;2023-02-15T08:41:55;101713.50;;;4.09;71.36
68380;BME280;57711;53.196;19.638;2023-02-15T08:44:22;101712.52;;;4.07;71.42
68380;BME280;57711;53.196;19.638;2023-02-15T08:46:50;101710.27;;;4.05;71.31
68380;BME280;57711;53.196;19.638;2023-02-15T08:49:19;101712.23;;;4.05;71.26
68380;BME280;57711;53.196;19.638;2023-02-15T08:51:48;101714.17;;;4.06;71.31
68380;BME280;57711;53.196;19.638;2023-02-15T08:54:18;101710.21;;;4.07;71.38
68380;BME280;57711;53.196;19.638;2023-02-15T08:56:46;101709.32;;;4.06;71.31
68380;BME280;57711;53.196;19.638;2023-02-15T08:59:21;101709.17;;;4.06;71.32
68380;BME280;57711;53.196;19.638;2023-02-15T09:01:50;101704.29;;;4.07;71.43
68380;BME280;57711;53.196;19.638;2023-02-15T09:04:18;101701.81;;;4.07;71.42
68380;BME280;57711;53.196;19.638;2023-02-15T09:06:47;101705.52;;;4.07;71.48
68380;BME280;57711;53.196;19.638;2023-02-15T09:09:16;101701.78;;;4.12;71.51
68380;BME280;57711;53.196;19.638;2023-02-15T09:11:46;101697.91;;;4.15;71.51
68380;BME280;57711;53.196;19.638;2023-02-15T09:14:16;101694.59;;;4.17;71.48
68380;BME280;57711;53.196;19.638;2023-02-15T09:16:45;101689.86;;;4.19;71.48
68380;BME280;57711;53.196;19.638;2023-02-15T09:19:13;101692.11;;;4.21;71.51
68380;BME280;57711;53.196;19.638;2023-02-15T09:21:41;101691.94;;;4.25;71.65
68380;BME280;57711;53.196;19.638;2023-02-15T09:24:10;101693.70;;;4.26;71.44
68380;BME280;57711;53.196;19.638;2023-02-15T09:26:40;101691.98;;;4.28;71.44
68380;BME280;57711;53.196;19.638;2023-02-15T09:29:09;101693.04;;;4.29;71.45
68380;BME280;57711;53.196;19.638;2023-02-15T09:31:44;101691.98;;;4.29;71.37
68380;BME280;57711;53.196;19.638;2023-02-15T09:34:12;101686.14;;;4.27;71.39
68380;BME280;57711;53.196;19.638;2023-02-15T09:36:40;101686.55;;;4.26;71.25
68380;BME280;57711;53.196;19.638;2023-02-15T09:39:23;101684.77;;;4.25;71.34
68380;BME280;57711;53.196;19.638;2023-02-15T09:54:06;101670.88;;;4.14;71.33
68380;BME280;57711;53.196;19.638;2023-02-15T09:59:17;101666.45;;;4.18;71.25
68380;BME280;57711;53.196;19.638;2023-02-15T10:04:51;101666.77;;;4.19;71.19
68380;BME280;57711;53.196;19.638;2023-02-15T10:13:22;101665.88;;;4.19;71.24
68380;BME280;57711;53.196;19.638;2023-02-15T10:16:05;101662.60;;;4.20;71.15
68380;BME280;57711;53.196;19.638;2023-02-15T10:21:43;101660.42;;;4.16;71.14
68380;BME280;57711;53.196;19.638;2023-02-15T10:24:27;101664.98;;;4.10;71.07
68380;BME280;57711;53.196;19.638;2023-02-15T10:27:00;101657.15;;;4.09;71.00
68380;BME280;57711;53.196;19.638;2023-02-15T10:32:13;101654.06;;;4.14;71.21
68380;BME280;57711;53.196;19.638;2023-02-15T10:35:11;101651.73;;;4.14;71.22
68380;BME280;57711;53.196;19.638;2023-02-15T10:38:01;101650.41;;;4.16;71.24
68380;BME280;57711;53.196;19.638;2023-02-15T10:40:37;101652.96;;;4.19;71.24
68380;BME280;57711;53.196;19.638;2023-02-15T10:43:18;101648.30;;;4.20;71.17
68380;BME280;57711;53.196;19.638;2023-02-15T10:45:56;101645.65;;;4.24;71.32
68380;BME280;57711;53.196;19.638;2023-02-15T10:51:05;101640.38;;;4.21;71.02
68380;BME280;57711;53.196;19.638;2023-02-15T10:59:31;101630.06;;;4.14;71.11
68380;BME280;57711;53.196;19.638;2023-02-15T11:02:09;101626.73;;;4.13;71.05
68380;BME280;57711;53.196;19.638;2023-02-15T11:07:25;101619.37;;;4.09;71.14
68380;BME280;57711;53.196;19.638;2023-02-15T11:12:45;101615.68;;;4.11;71.33
68380;BME280;57711;53.196;19.638;2023-02-15T11:15:37;101617.23;;;4.13;71.08
68380;BME280;57711;53.196;19.638;2023-02-15T11:18:14;101610.63;;;4.13;71.02
68380;BME280;57711;53.196;19.638;2023-02-15T11:21:24;101605.92;;;4.14;71.15
68380;BME280;57711;53.196;19.638;2023-02-15T11:23:51;101609.59;;;4.17;71.29
68380;BME280;57711;53.196;19.638;2023-02-15T11:26:37;101609.85;;;4.19;71.27
68380;BME280;57711;53.196;19.638;2023-02-15T11:31:53;101605.63;;;4.30;71.45
68380;BME280;57711;53.196;19.638;2023-02-15T11:34:29;101606.23;;;4.37;71.31
68380;BME280;57711;53.196;19.638;2023-02-15T11:37:04;101601.22;;;4.37;71.03
68380;BME280;57711;53.196;19.638;2023-02-15T11:39:33;101599.85;;;4.35;71.09
68380;BME280;57711;53.196;19.638;2023-02-15T11:42:09;101595.24;;;4.34;71.23
68380;BME280;57711;53.196;19.638;2023-02-15T11:44:49;101592.30;;;4.36;71.33
68380;BME280;57711;53.196;19.638;2023-02-15T11:47:20;101590.13;;;4.37;71.30
68380;BME280;57711;53.196;19.638;2023-02-15T11:49:47;101589.54;;;4.38;71.17
68380;BME280;57711;53.196;19.638;2023-02-15T11:52:15;101580.94;;;4.38;71.12
68380;BME280;57711;53.196;19.638;2023-02-15T11:54:50;101584.98;;;4.40;71.15
68380;BME280;57711;53.196;19.638;2023-02-15T11:57:38;101582.98;;;4.41;71.17
68380;BME280;57711;53.196;19.638;2023-02-15T12:00:16;101584.27;;;4.40;71.14
68380;BME280;57711;53.196;19.638;2023-02-15T12:02:52;101578.21;;;4.43;71.30
68380;BME280;57711;53.196;19.638;2023-02-15T12:05:24;101576.58;;;4.44;71.19
68380;BME280;57711;53.196;19.638;2023-02-15T12:08:03;101574.09;;;4.44;71.12
68380;BME280;57711;53.196;19.638;2023-02-15T12:10:41;101570.85;;;4.44;71.02
68380;BME280;57711;53.196;19.638;2023-02-15T12:13:15;101566.73;;;4.44;71.09
68380;BME280;57711;53.196;19.638;2023-02-15T12:15:45;101567.02;;;4.42;70.98
68380;BME280;57711;53.196;19.638;2023-02-15T12:21:07;101561.10;;;4.38;71.08
68380;BME280;57711;53.196;19.638;2023-02-15T12:23:48;101560.44;;;4.36;71.09
68380;BME280;57711;53.196;19.638;2023-02-15T12:26:29;101556.98;;;4.33;70.95
68380;BME280;57711;53.196;19.638;2023-02-15T12:28:59;101558.92;;;4.33;71.08
68380;BME280;57711;53.196;19.638;2023-02-15T12:31:36;101554.81;;;4.33;71.18
68380;BME280;57711;53.196;19.638;2023-02-15T12:34:33;101550.98;;;4.31;71.08
68380;BME280;57711;53.196;19.638;2023-02-15T12:37:09;101547.74;;;4.31;71.24
68380;BME280;57711;53.196;19.638;2023-02-15T12:39:54;101548.64;;;4.31;71.07
68380;BME280;57711;53.196;19.638;2023-02-15T12:42:23;101543.79;;;4.32;71.05
68380;BME280;57711;53.196;19.638;2023-02-15T12:45:03;101545.56;;;4.36;71.12
68380;BME280;57711;53.196;19.638;2023-02-15T12:47:31;101544.48;;;4.36;71.05
68380;BME280;57711;53.196;19.638;2023-02-15T12:50:22;101539.80;;;4.37;71.14
68380;BME280;57711;53.196;19.638;2023-02-15T12:52:51;101533.27;;;4.35;71.19
68380;BME280;57711;53.196;19.638;2023-02-15T12:55:32;101532.09;;;4.33;71.09
68380;BME280;57711;53.196;19.638;2023-02-15T13:00:32;101524.06;;;4.36;71.13
68380;BME280;57711;53.196;19.638;2023-02-15T13:03:00;101520.69;;;4.40;70.99
68380;BME280;57711;53.196;19.638;2023-02-15T13:10:51;101514.06;;;4.40;71.20
68380;BME280;57711;53.196;19.638;2023-02-15T13:13:24;101511.35;;;4.41;71.11
68380;BME280;57711;53.196;19.638;2023-02-15T13:15:57;101511.44;;;4.43;71.18
68380;BME280;57711;53.196;19.638;2023-02-15T13:18:31;101504.31;;;4.42;71.00
68380;BME280;57711;53.196;19.638;2023-02-15T13:21:14;101501.15;;;4.41;71.00
68380;BME280;57711;53.196;19.638;2023-02-15T13:23:46;101497.06;;;4.40;71.14
68380;BME280;57711;53.196;19.638;2023-02-15T13:26:19;101494.62;;;4.38;71.16
68380;BME280;57711;53.196;19.638;2023-02-15T13:28:54;101493.52;;;4.40;71.13
68380;BME280;57711;53.196;19.638;2023-02-15T13:31:27;101491.61;;;4.42;71.21
68380;BME280;57711;53.196;19.638;2023-02-15T13:34:09;101489.39;;;4.43;71.11
68380;BME280;57711;53.196;19.638;2023-02-15T13:42:21;101482.95;;;4.43;71.19
68380;BME280;57711;53.196;19.638;2023-02-15T13:56:22;101479.07;;;4.42;71.15
68380;BME280;57711;53.196;19.638;2023-02-15T14:01:49;101477.61;;;4.42;71.20
68380;BME280;57711;53.196;19.638;2023-02-15T14:07:19;101476.91;;;4.42;71.13
68380;BME280;57711;53.196;19.638;2023-02-15T14:09:59;101472.59;;;4.43;71.13
68380;BME280;57711;53.196;19.638;2023-02-15T14:18:07;101463.51;;;4.38;71.22
68380;BME280;57711;53.196;19.638;2023-02-15T14:20:59;101462.70;;;4.40;71.17
68380;BME280;57711;53.196;19.638;2023-02-15T14:31:55;101452.59;;;4.45;71.03
68380;BME280;57711;53.196;19.638;2023-02-15T14:37:13;101448.98;;;4.46;71.16
68380;BME280;57711;53.196;19.638;2023-02-15T14:40:00;101450.38;;;4.47;71.12
68380;BME280;57711;53.196;19.638;2023-02-15T14:43:07;101451.19;;;4.49;71.19
68380;BME280;57711;53.196;19.638;2023-02-15T14:45:40;101451.35;;;4.49;71.16
68380;BME280;57711;53.196;19.638;2023-02-15T14:48:21;101447.45;;;4.48;71.12
68380;BME280;57711;53.196;19.638;2023-02-15T14:50:51;101447.02;;;4.45;71.05
68380;BME280;57711;53.196;19.638;2023-02-15T14:53:34;101439.20;;;4.44;71.18
68380;BME280;57711;53.196;19.638;2023-02-15T14:58:37;101435.43;;;4.57;71.26
68380;BME280;57711;53.196;19.638;2023-02-15T15:01:09;101435.76;;;4.61;71.16
68380;BME280;57711;53.196;19.638;2023-02-15T15:03:43;101433.84;;;4.64;71.10
68380;BME280;57711;53.196;19.638;2023-02-15T15:06:27;101432.73;;;4.61;70.97
68380;BME280;57711;53.196;19.638;2023-02-15T15:09:00;101426.04;;;4.54;70.96
68380;BME280;57711;53.196;19.638;2023-02-15T15:14:10;101426.08;;;4.53;70.98
68380;BME280;57711;53.196;19.638;2023-02-15T15:19:10;101414.69;;;4.56;70.99
68380;BME280;57711;53.196;19.638;2023-02-15T15:22:02;101411.71;;;4.54;70.81
68380;BME280;57711;53.196;19.638;2023-02-15T15:47:15;101379.12;;;4.50;70.96
68380;BME280;57711;53.196;19.638;2023-02-15T15:49:49;101376.18;;;4.48;71.07
68380;BME280;57711;53.196;19.638;2023-02-15T15:52:22;101376.05;;;4.47;71.11
68380;BME280;57711;53.196;19.638;2023-02-15T15:54:52;101378.73;;;4.47;71.12
68380;BME280;57711;53.196;19.638;2023-02-15T15:57:43;101376.14;;;4.45;70.93